Terminal Aerodrome Forecast
Issued by NWS Twin Cities, MN

Home | Current Version | Previous Version | Graphics & Text | Print | Product List | Glossary On
Versions: 1 2 3 4 5 6 7 8 9 10 11 12 13 14 15 16 17 18 19 20 21
629
FTUS43 KMPX 111720
TAFSTC
TAF
KSTC 111720Z 1118/1218 33016G28KT P6SM VCSH BKN014 OVC030
     FM112300 33016G26KT P6SM FEW025
     FM120400 32012G18KT P6SM SKC
     FM120700 31007KT P6SM SCT250
     FM121100 29004KT P6SM BKN090=

USA.gov is the U.S. government's official web portal to all federal, state and local government web resources and services.